createdAt,value
2023-05-06T00:01:30.428Z,43.40
2023-05-06T00:03:57.770Z,43.28
2023-05-06T00:06:25.054Z,43.24
2023-05-06T00:08:53.495Z,43.28
2023-05-06T00:11:20.553Z,43.26
2023-05-06T00:13:47.642Z,43.17
2023-05-06T00:16:14.780Z,43.57
2023-05-06T00:18:41.864Z,43.43
2023-05-06T00:21:08.989Z,43.42
2023-05-06T00:23:36.098Z,43.68
2023-05-06T00:26:05.030Z,43.79
2023-05-06T00:28:32.769Z,43.77
2023-05-06T00:30:59.896Z,43.87
2023-05-06T00:33:27.142Z,43.64
2023-05-06T00:35:54.250Z,43.50
2023-05-06T00:38:21.355Z,43.38
2023-05-06T00:40:48.457Z,43.25
2023-05-06T00:43:16.893Z,43.41
2023-05-06T00:45:44.107Z,43.25
2023-05-06T00:48:11.423Z,43.30
2023-05-06T00:50:40.249Z,43.46
2023-05-06T00:53:09.481Z,43.18
2023-05-06T00:55:37.351Z,43.27
2023-05-06T00:58:04.899Z,43.42
2023-05-06T01:03:24.319Z,43.29
2023-05-06T01:05:59.843Z,43.49
2023-05-06T01:08:32.292Z,43.76
2023-05-06T01:11:05.497Z,43.72
2023-05-06T01:13:42.597Z,43.71
2023-05-06T01:16:14.509Z,43.70
2023-05-06T01:18:44.551Z,43.58
2023-05-06T01:21:11.674Z,43.62
2023-05-06T01:23:52.790Z,43.72
2023-05-06T01:26:19.853Z,43.66
2023-05-06T01:28:46.920Z,43.60
2023-05-06T01:31:22.643Z,43.33
2023-05-06T01:33:58.990Z,43.36
2023-05-06T01:36:32.349Z,43.41
2023-05-06T01:39:08.322Z,43.50
2023-05-06T01:41:38.800Z,43.41
2023-05-06T01:44:08.079Z,43.25
2023-05-06T01:46:35.757Z,43.27
2023-05-06T01:49:05.449Z,43.29
2023-05-06T01:51:32.954Z,43.49
2023-05-06T01:54:01.790Z,43.76
2023-05-06T01:56:29.338Z,43.90
2023-05-06T01:58:57.738Z,43.89
2023-05-06T02:01:25.859Z,43.81
2023-05-06T02:03:53.106Z,43.65
2023-05-06T02:06:20.404Z,43.66
2023-05-06T02:08:47.686Z,43.71
2023-05-06T02:11:16.180Z,43.61
2023-05-06T02:13:43.242Z,43.65
2023-05-06T02:16:10.521Z,43.27
2023-05-06T02:18:37.659Z,43.32
2023-05-06T02:21:04.800Z,43.43
2023-05-06T02:23:31.900Z,43.51
2023-05-06T02:25:59.035Z,43.27
2023-05-06T02:28:27.464Z,43.62
2023-05-06T02:30:57.700Z,43.23
2023-05-06T02:33:25.169Z,43.42
2023-05-06T02:35:52.316Z,43.67
2023-05-06T02:38:19.843Z,43.53
2023-05-06T02:40:46.938Z,43.53
2023-05-06T02:43:13.996Z,43.57
2023-05-06T02:45:42.490Z,43.83
2023-05-06T02:48:09.637Z,43.28
2023-05-06T02:50:36.718Z,43.57
2023-05-06T02:53:03.841Z,43.44
2023-05-06T02:55:31.005Z,43.55
2023-05-06T02:57:58.141Z,43.33
2023-05-06T03:00:25.294Z,43.34
2023-05-06T03:02:53.790Z,43.35
2023-05-06T03:05:20.897Z,43.44
2023-05-06T03:07:48.001Z,43.29
2023-05-06T03:10:15.289Z,43.54
2023-05-06T03:12:42.410Z,43.18
2023-05-06T03:15:10.594Z,43.21
2023-05-06T03:17:37.879Z,43.15
2023-05-06T03:20:08.177Z,43.38
2023-05-06T03:22:35.359Z,43.43
2023-05-06T03:25:02.486Z,43.40
2023-05-06T03:27:29.574Z,43.54
2023-05-06T03:29:56.888Z,43.61
2023-05-06T03:32:24.006Z,43.74
2023-05-06T03:34:51.096Z,43.71
2023-05-06T03:37:19.632Z,43.64
2023-05-06T03:39:46.737Z,43.76
2023-05-06T03:42:13.877Z,43.62
2023-05-06T03:44:40.931Z,43.60
2023-05-06T03:47:08.047Z,43.28
2023-05-06T03:49:35.132Z,43.61
2023-05-06T03:52:02.263Z,43.34
2023-05-06T03:54:30.918Z,43.37
2023-05-06T03:56:57.989Z,43.57
2023-05-06T03:59:25.100Z,43.23
2023-05-06T04:01:52.226Z,43.43
2023-05-06T04:04:19.378Z,43.26
2023-05-06T04:06:46.475Z,43.38
2023-05-06T04:09:13.582Z,43.52
2023-05-06T04:11:42.006Z,43.67
2023-05-06T04:14:10.449Z,44.01
2023-05-06T04:16:37.657Z,43.73
2023-05-06T04:19:06.487Z,43.88
2023-05-06T04:21:33.804Z,44.01
2023-05-06T04:24:00.902Z,43.91
2023-05-06T04:26:28.011Z,44.08
2023-05-06T04:28:56.571Z,44.48
2023-05-06T04:31:24.162Z,43.87
2023-05-06T04:33:51.291Z,44.16
2023-05-06T04:36:18.365Z,43.95
2023-05-06T04:38:45.461Z,44.30
2023-05-06T04:41:12.574Z,50.22
2023-05-06T04:43:39.793Z,47.67
2023-05-06T04:46:08.247Z,47.26
2023-05-06T04:48:35.328Z,45.68
2023-05-06T04:51:02.582Z,45.21
2023-05-06T04:53:29.689Z,45.20
2023-05-06T04:55:56.809Z,45.02
2023-05-06T04:58:23.902Z,45.21
2023-05-06T05:00:51.011Z,45.06
2023-05-06T05:03:19.565Z,45.09
2023-05-06T05:05:46.726Z,45.02
2023-05-06T05:08:13.871Z,44.90
2023-05-06T05:10:41.544Z,44.69
2023-05-06T05:13:08.919Z,44.71
2023-05-06T05:15:37.514Z,44.94
2023-05-06T05:18:04.693Z,44.89
2023-05-06T05:20:33.303Z,45.96
2023-05-06T05:23:00.493Z,49.34
2023-05-06T05:25:27.699Z,47.70
2023-05-06T05:27:54.769Z,47.87
2023-05-06T05:30:21.949Z,48.14
2023-05-06T05:32:49.130Z,47.42
2023-05-06T05:35:16.294Z,47.14
2023-05-06T05:37:44.736Z,46.76
2023-05-06T05:40:12.635Z,46.82
2023-05-06T05:42:39.977Z,46.67
2023-05-06T05:45:08.399Z,46.72
2023-05-06T05:47:35.644Z,46.37
2023-05-06T05:50:02.752Z,46.23
2023-05-06T05:52:29.855Z,46.81
2023-05-06T05:54:58.382Z,47.06
2023-05-06T05:57:25.744Z,46.90
2023-05-06T05:59:52.865Z,46.76
2023-05-06T06:02:20.093Z,47.13
2023-05-06T06:04:47.289Z,47.08
2023-05-06T06:07:14.695Z,47.01
2023-05-06T06:09:41.833Z,47.13
2023-05-06T06:12:10.430Z,47.05
2023-05-06T06:14:37.538Z,46.96
2023-05-06T06:17:04.723Z,47.29
2023-05-06T06:19:31.889Z,46.96
2023-05-06T06:21:58.970Z,46.90
2023-05-06T06:24:26.077Z,47.42
2023-05-06T06:26:53.215Z,47.29
2023-05-06T06:29:21.649Z,47.58
2023-05-06T06:31:48.783Z,47.61
2023-05-06T06:34:15.884Z,47.70
2023-05-06T06:36:43.598Z,47.58
2023-05-06T06:39:10.843Z,47.56
2023-05-06T06:41:37.952Z,47.81
2023-05-06T06:44:05.548Z,47.59
2023-05-06T06:46:33.995Z,47.49
2023-05-06T06:49:01.183Z,47.54
2023-05-06T06:51:28.293Z,47.55
2023-05-06T06:53:55.629Z,47.65
2023-05-06T06:56:22.748Z,47.86
2023-05-06T06:58:52.434Z,47.76
2023-05-06T07:01:20.452Z,47.52
2023-05-06T07:03:48.929Z,46.93
2023-05-06T07:06:16.051Z,46.83
2023-05-06T07:08:43.128Z,47.22
2023-05-06T07:11:10.242Z,47.03
2023-05-06T07:13:37.361Z,47.43
2023-05-06T07:16:04.925Z,47.77
2023-05-06T07:18:32.049Z,48.74
2023-05-06T07:21:00.492Z,48.42
2023-05-06T07:23:28.061Z,47.59
2023-05-06T07:25:55.820Z,47.20
2023-05-06T07:28:22.956Z,47.15
2023-05-06T07:30:50.108Z,47.05
2023-05-06T07:33:17.298Z,47.17
2023-05-06T07:35:44.387Z,46.95
2023-05-06T07:38:12.806Z,47.00
2023-05-06T07:40:40.117Z,46.84
2023-05-06T07:43:08.175Z,46.50
2023-05-06T07:45:35.313Z,46.70
2023-05-06T07:48:02.449Z,46.69
2023-05-06T07:50:29.570Z,46.67
2023-05-06T07:52:56.825Z,46.19
2023-05-06T07:55:25.396Z,46.29
2023-05-06T07:57:52.597Z,46.16
2023-05-06T08:00:19.986Z,46.04
2023-05-06T08:02:47.185Z,46.27
2023-05-06T08:05:14.596Z,46.34
2023-05-06T08:07:41.735Z,46.19
2023-05-06T08:10:09.844Z,46.12
2023-05-06T08:12:38.492Z,46.37
2023-05-06T08:15:06.792Z,46.09
2023-05-06T08:17:33.972Z,46.07
2023-05-06T08:20:01.057Z,45.86
2023-05-06T08:22:28.140Z,45.85
2023-05-06T08:24:55.265Z,45.56
2023-05-06T08:27:22.354Z,45.54
2023-05-06T08:29:50.874Z,45.75
2023-05-06T08:32:18.062Z,45.49
2023-05-06T08:34:45.206Z,45.43
2023-05-06T08:37:12.568Z,45.28
2023-05-06T08:39:39.674Z,45.44
2023-05-06T08:42:10.076Z,45.43
2023-05-06T08:44:37.404Z,45.80
2023-05-06T08:47:05.999Z,45.69
2023-05-06T08:49:33.203Z,45.84
2023-05-06T08:52:04.900Z,45.68
2023-05-06T08:54:34.841Z,45.82
2023-05-06T08:57:04.243Z,45.70
2023-05-06T08:59:31.535Z,45.92
2023-05-06T09:02:00.349Z,45.87
2023-05-06T09:04:28.996Z,46.56
2023-05-06T09:06:57.348Z,46.29
2023-05-06T09:09:24.640Z,46.40
2023-05-06T09:11:51.867Z,45.97
2023-05-06T09:14:19.039Z,46.16
2023-05-06T09:16:48.670Z,47.00
2023-05-06T09:19:16.761Z,47.29
2023-05-06T09:21:46.918Z,46.94
2023-05-06T09:24:15.312Z,46.95
2023-05-06T09:26:43.840Z,47.05
2023-05-06T09:29:11.093Z,46.76
2023-05-06T09:31:41.838Z,46.52
2023-05-06T09:34:08.958Z,46.86
2023-05-06T09:36:36.442Z,46.77
2023-05-06T09:39:05.422Z,46.96
2023-05-06T09:41:32.809Z,46.76
2023-05-06T09:43:59.925Z,48.57
2023-05-06T09:46:27.543Z,47.44
2023-05-06T09:48:56.730Z,46.50
2023-05-06T09:51:23.973Z,46.40
2023-05-06T09:53:52.433Z,46.04
2023-05-06T09:58:49.902Z,45.92
2023-05-06T10:01:32.806Z,45.85
2023-05-06T10:04:05.959Z,45.57
2023-05-06T10:06:33.556Z,45.16
2023-05-06T10:09:01.810Z,45.55
2023-05-06T10:11:31.680Z,45.35
2023-05-06T10:14:00.246Z,45.37
2023-05-06T10:16:27.993Z,45.25
2023-05-06T10:18:55.952Z,45.24
2023-05-06T10:21:25.525Z,45.24
2023-05-06T10:24:00.230Z,45.34
2023-05-06T10:26:29.758Z,45.30
2023-05-06T10:28:59.911Z,45.15
2023-05-06T10:31:28.621Z,45.16
2023-05-06T10:34:00.756Z,44.89
2023-05-06T10:36:31.751Z,45.02
2023-05-06T10:39:00.079Z,44.77
2023-05-06T10:41:28.562Z,44.83
2023-05-06T10:43:57.262Z,44.82
2023-05-06T10:46:29.330Z,44.86
2023-05-06T10:49:16.135Z,44.94
2023-05-06T10:51:43.694Z,45.00
2023-05-06T10:54:21.322Z,44.90
2023-05-06T10:57:09.418Z,44.76
2023-05-06T10:59:36.535Z,44.49
2023-05-06T11:02:11.098Z,44.30
2023-05-06T11:04:39.470Z,44.35
2023-05-06T11:07:08.775Z,44.10
2023-05-06T11:09:54.092Z,44.40
2023-05-06T11:12:21.822Z,44.89
2023-05-06T11:14:49.431Z,44.60
2023-05-06T11:17:32.052Z,44.84
2023-05-06T11:20:18.718Z,44.81
2023-05-06T11:22:45.877Z,44.45
2023-05-06T11:25:40.118Z,44.60
2023-05-06T11:28:08.809Z,44.64
2023-05-06T11:30:37.195Z,44.60
2023-05-06T11:33:07.700Z,44.20
2023-05-06T11:35:35.570Z,44.09
2023-05-06T11:38:02.852Z,44.07
2023-05-06T11:40:30.097Z,44.40
2023-05-06T11:43:09.984Z,44.22
2023-05-06T11:45:40.918Z,44.17
2023-05-06T11:48:11.715Z,44.02
2023-05-06T11:50:38.801Z,43.90
2023-05-06T11:53:05.969Z,44.02
2023-05-06T11:55:33.172Z,43.94
2023-05-06T11:58:00.265Z,44.08
2023-05-06T12:00:27.354Z,44.15
2023-05-06T12:02:55.487Z,44.36
2023-05-06T12:05:24.338Z,44.46
2023-05-06T12:07:51.678Z,44.37
2023-05-06T12:10:19.039Z,44.46
2023-05-06T12:12:46.458Z,44.16
2023-05-06T12:15:13.716Z,44.10
2023-05-06T12:17:40.945Z,43.94
2023-05-06T12:20:11.103Z,43.91
2023-05-06T12:22:39.795Z,44.48
2023-05-06T12:25:14.452Z,44.29
2023-05-06T12:27:41.577Z,44.01
2023-05-06T12:30:09.792Z,43.84
2023-05-06T12:32:55.941Z,44.15
2023-05-06T12:35:26.796Z,44.02
2023-05-06T12:37:55.288Z,43.86
2023-05-06T12:40:22.511Z,43.77
2023-05-06T12:42:54.034Z,43.89
2023-05-06T12:45:22.161Z,43.82
2023-05-06T12:47:53.497Z,44.04
2023-05-06T12:50:34.978Z,43.98
2023-05-06T12:53:04.117Z,44.07
2023-05-06T12:55:31.588Z,43.88
2023-05-06T12:57:59.006Z,43.75
2023-05-06T13:00:26.132Z,43.62
2023-05-06T13:02:53.289Z,43.29
2023-05-06T13:05:20.612Z,43.22
2023-05-06T13:07:47.812Z,43.40
2023-05-06T13:10:16.213Z,43.30
2023-05-06T13:12:43.353Z,42.93
2023-05-06T13:15:10.924Z,43.37
2023-05-06T13:17:38.041Z,43.24
2023-05-06T13:20:06.409Z,43.36
2023-05-06T13:22:40.287Z,43.35
2023-05-06T13:25:15.708Z,43.24
2023-05-06T13:27:42.779Z,43.60
2023-05-06T13:30:10.767Z,43.52
2023-05-06T13:32:38.055Z,43.58
2023-05-06T13:35:05.939Z,43.43
2023-05-06T13:37:33.034Z,43.26
2023-05-06T13:40:00.226Z,43.51
2023-05-06T13:42:28.693Z,43.30
2023-05-06T13:44:55.880Z,43.01
2023-05-06T13:47:22.977Z,42.72
2023-05-06T13:49:50.058Z,42.95
2023-05-06T13:52:17.128Z,42.83
2023-05-06T13:54:44.276Z,42.82
2023-05-06T13:57:11.371Z,42.64
2023-05-06T13:59:39.795Z,42.37
2023-05-06T14:02:09.368Z,42.71
2023-05-06T14:04:37.142Z,42.53
2023-05-06T14:07:04.287Z,42.58
2023-05-06T14:09:31.396Z,42.30
2023-05-06T14:11:58.474Z,42.20
2023-05-06T14:14:25.588Z,41.93
2023-05-06T14:16:54.029Z,42.24
2023-05-06T14:19:24.924Z,42.30
2023-05-06T14:21:52.008Z,41.95
2023-05-06T14:24:19.128Z,41.99
2023-05-06T14:26:46.309Z,42.08
2023-05-06T14:29:13.389Z,41.97
2023-05-06T14:31:40.542Z,42.00
2023-05-06T14:34:09.276Z,41.69
2023-05-06T14:36:36.356Z,41.53
2023-05-06T14:39:03.568Z,41.80
2023-05-06T14:41:30.694Z,41.75
2023-05-06T14:43:57.767Z,41.63
2023-05-06T14:46:27.008Z,41.32
2023-05-06T14:48:55.798Z,41.33
2023-05-06T14:51:24.352Z,41.48
2023-05-06T14:53:51.449Z,41.38
2023-05-06T14:56:18.906Z,41.30
2023-05-06T14:58:46.036Z,41.42
2023-05-06T15:01:13.207Z,41.30
2023-05-06T15:03:40.321Z,41.43
2023-05-06T15:06:07.628Z,41.63
2023-05-06T15:08:36.181Z,41.51
2023-05-06T15:11:04.355Z,41.70
2023-05-06T15:13:31.603Z,41.22
2023-05-06T15:15:58.830Z,41.58
2023-05-06T15:18:26.044Z,41.12
2023-05-06T15:20:53.129Z,40.97
2023-05-06T15:23:20.225Z,41.26
2023-05-06T15:25:48.661Z,41.15
2023-05-06T15:28:15.746Z,41.19
2023-05-06T15:30:42.855Z,41.13
2023-05-06T15:33:09.954Z,40.94
2023-05-06T15:35:37.047Z,40.88
2023-05-06T15:38:04.312Z,41.17
2023-05-06T15:40:31.467Z,41.39
2023-05-06T15:42:59.930Z,40.92
2023-05-06T15:45:27.144Z,40.84
2023-05-06T15:47:54.270Z,41.21
2023-05-06T15:50:32.543Z,41.20
2023-05-06T15:53:01.133Z,41.47
2023-05-06T15:55:28.339Z,41.52
2023-05-06T15:57:56.535Z,41.53
2023-05-06T16:00:26.487Z,41.49
2023-05-06T16:02:53.709Z,41.47
2023-05-06T16:05:20.911Z,41.42
2023-05-06T16:07:48.012Z,41.62
2023-05-06T16:10:15.102Z,41.36
2023-05-06T16:12:42.194Z,40.95
2023-05-06T16:15:10.261Z,41.24
2023-05-06T16:17:38.732Z,41.24
2023-05-06T16:20:07.350Z,41.14
2023-05-06T16:22:34.469Z,41.46
2023-05-06T16:25:01.676Z,41.59
2023-05-06T16:27:28.780Z,41.32
2023-05-06T16:29:55.982Z,41.33
2023-05-06T16:32:23.316Z,41.59
2023-05-06T16:34:51.793Z,41.97
2023-05-06T16:37:19.082Z,42.14
2023-05-06T16:39:46.148Z,42.26
2023-05-06T16:42:13.202Z,42.10
2023-05-06T16:44:40.316Z,42.25
2023-05-06T16:47:07.614Z,42.27
2023-05-06T16:49:35.103Z,42.26
2023-05-06T16:52:03.897Z,42.04
2023-05-06T16:54:30.971Z,41.84
2023-05-06T16:56:58.039Z,41.90
2023-05-06T16:59:25.269Z,41.84
2023-05-06T17:01:52.343Z,42.15
2023-05-06T17:04:19.433Z,41.90
2023-05-06T17:06:46.544Z,41.76
2023-05-06T17:09:14.942Z,41.89
2023-05-06T17:11:42.144Z,41.87
2023-05-06T17:14:09.642Z,41.96
2023-05-06T17:16:37.786Z,41.81
2023-05-06T17:19:05.090Z,41.91
2023-05-06T17:21:32.346Z,42.08
2023-05-06T17:23:59.456Z,41.88
2023-05-06T17:26:27.956Z,42.32
2023-05-06T17:28:55.042Z,41.98
2023-05-06T17:31:22.274Z,42.08
2023-05-06T17:33:49.504Z,42.13
2023-05-06T17:36:18.750Z,42.33
2023-05-06T17:38:45.885Z,41.92
2023-05-06T17:41:13.031Z,42.07
2023-05-06T17:43:41.463Z,41.85
2023-05-06T17:46:08.700Z,42.13
2023-05-06T17:48:35.780Z,41.66
2023-05-06T17:51:03.296Z,41.88
2023-05-06T17:53:30.454Z,41.77
2023-05-06T17:55:57.972Z,41.80
2023-05-06T17:58:25.115Z,42.04
2023-05-06T18:00:53.533Z,41.70
2023-05-06T18:03:20.683Z,42.20
2023-05-06T18:05:47.856Z,42.28
2023-05-06T18:08:15.275Z,42.43
2023-05-06T18:10:42.368Z,42.63
2023-05-06T18:13:09.498Z,42.49
2023-05-06T18:15:36.745Z,42.39
2023-05-06T18:18:05.413Z,42.29
2023-05-06T18:20:32.673Z,42.12
2023-05-06T18:22:59.759Z,42.04
2023-05-06T18:25:27.156Z,41.95
2023-05-06T18:27:54.261Z,42.45
2023-05-06T18:30:21.392Z,42.31
2023-05-06T18:32:51.004Z,41.93
2023-05-06T18:35:20.385Z,41.92
2023-05-06T18:37:47.502Z,42.15
2023-05-06T18:40:14.838Z,41.99
2023-05-06T18:42:41.949Z,42.02
2023-05-06T18:45:09.960Z,42.39
2023-05-06T18:47:37.784Z,41.88
2023-05-06T18:50:05.915Z,42.12
2023-05-06T18:52:34.588Z,42.21
2023-05-06T18:55:01.738Z,42.38
2023-05-06T18:57:28.869Z,41.98
2023-05-06T18:59:55.992Z,42.12
2023-05-06T19:02:23.158Z,42.55
2023-05-06T19:04:50.386Z,42.32
2023-05-06T19:07:17.518Z,42.10
2023-05-06T19:09:45.935Z,42.48
2023-05-06T19:12:13.029Z,42.42
2023-05-06T19:14:40.107Z,42.39
2023-05-06T19:17:07.213Z,42.61
2023-05-06T19:19:34.317Z,42.40
2023-05-06T19:22:01.414Z,42.40
2023-05-06T19:24:29.717Z,42.19
2023-05-06T19:26:58.208Z,42.59
2023-05-06T19:29:25.281Z,42.66
2023-05-06T19:31:52.412Z,42.83
2023-05-06T19:34:19.627Z,42.48
2023-05-06T19:36:46.709Z,43.09
2023-05-06T19:39:13.845Z,43.08
2023-05-06T19:41:40.949Z,42.82
2023-05-06T19:44:09.620Z,43.04
2023-05-06T19:46:36.756Z,42.92
2023-05-06T19:49:03.941Z,42.82
2023-05-06T19:51:31.013Z,42.56
2023-05-06T19:53:58.114Z,42.80
2023-05-06T19:56:25.240Z,42.71
2023-05-06T19:58:52.297Z,42.29
2023-05-06T20:01:21.356Z,42.58
2023-05-06T20:03:48.761Z,42.70
2023-05-06T20:06:15.996Z,42.56
2023-05-06T20:08:43.395Z,43.02
2023-05-06T20:11:10.513Z,42.77
2023-05-06T20:13:37.627Z,42.71
2023-05-06T20:16:05.172Z,43.08
2023-05-06T20:18:33.754Z,42.81
2023-05-06T20:21:00.867Z,42.79
2023-05-06T20:23:29.882Z,42.71
2023-05-06T20:25:57.299Z,43.06
2023-05-06T20:28:24.403Z,42.64
2023-05-06T20:30:51.603Z,43.08
2023-05-06T20:33:18.920Z,42.95
2023-05-06T20:35:47.414Z,42.79
2023-05-06T20:38:14.560Z,42.44
2023-05-06T20:40:41.717Z,42.87
2023-05-06T20:43:08.780Z,42.69
2023-05-06T20:45:36.083Z,42.82
2023-05-06T20:48:03.536Z,42.24
2023-05-06T20:50:30.647Z,42.48
2023-05-06T20:53:00.107Z,42.71
2023-05-06T20:55:27.662Z,42.69
2023-05-06T20:57:54.792Z,42.67
2023-05-06T21:00:22.213Z,42.91
2023-05-06T21:02:49.415Z,42.95
2023-05-06T21:05:16.852Z,42.93
2023-05-06T21:07:44.012Z,42.88
2023-05-06T21:10:12.656Z,42.99
2023-05-06T21:12:39.831Z,43.05
2023-05-06T21:15:08.296Z,42.67
2023-05-06T21:17:35.570Z,42.80
2023-05-06T21:20:04.299Z,43.14
2023-05-06T21:22:33.450Z,42.99
2023-05-06T21:25:00.589Z,42.97
2023-05-06T21:27:29.022Z,42.62
2023-05-06T21:29:56.104Z,42.58
2023-05-06T21:32:23.258Z,42.73
2023-05-06T21:34:50.461Z,42.79
2023-05-06T21:37:17.533Z,42.73
2023-05-06T21:39:44.769Z,42.63
2023-05-06T21:42:11.856Z,42.75
2023-05-06T21:44:40.249Z,43.03
2023-05-06T21:47:07.337Z,43.03
2023-05-06T21:49:34.410Z,42.87
2023-05-06T21:52:01.520Z,43.06
2023-05-06T21:54:28.645Z,43.19
2023-05-06T21:56:55.750Z,43.20
2023-05-06T21:59:22.821Z,42.97
2023-05-06T22:01:51.296Z,42.91
2023-05-06T22:04:18.453Z,43.23
2023-05-06T22:06:45.542Z,43.09
2023-05-06T22:09:12.630Z,43.18
2023-05-06T22:11:39.739Z,43.17
2023-05-06T22:14:07.064Z,42.98
2023-05-06T22:16:34.539Z,42.65
2023-05-06T22:19:03.432Z,42.60
2023-05-06T22:21:30.517Z,42.58
2023-05-06T22:23:57.744Z,42.60
2023-05-06T22:26:24.875Z,42.99
2023-05-06T22:28:52.024Z,42.76
2023-05-06T22:31:19.215Z,43.07
2023-05-06T22:33:46.305Z,42.69
2023-05-06T22:36:14.817Z,42.83
2023-05-06T22:38:41.910Z,42.95
2023-05-06T22:41:08.974Z,42.79
2023-05-06T22:43:36.050Z,42.96
2023-05-06T22:46:03.668Z,43.27
2023-05-06T22:48:30.783Z,43.34
2023-05-06T22:50:58.059Z,43.22
2023-05-06T22:53:26.647Z,43.03
2023-05-06T22:55:53.725Z,42.99
2023-05-06T22:58:20.852Z,43.09
2023-05-06T23:00:48.236Z,43.05
2023-05-06T23:03:15.527Z,43.11
2023-05-06T23:05:42.657Z,42.70
2023-05-06T23:08:09.956Z,42.79
2023-05-06T23:10:38.419Z,43.03
2023-05-06T23:13:05.559Z,43.09
2023-05-06T23:15:32.749Z,43.20
2023-05-06T23:18:00.097Z,43.09
2023-05-06T23:20:27.377Z,42.94
2023-05-06T23:22:54.516Z,43.42
2023-05-06T23:25:21.614Z,43.09
2023-05-06T23:27:50.021Z,43.39
2023-05-06T23:30:17.139Z,43.35
2023-05-06T23:32:44.354Z,43.38
2023-05-06T23:35:11.652Z,43.31
2023-05-06T23:37:38.971Z,43.32
2023-05-06T23:40:07.467Z,42.97
2023-05-06T23:42:34.654Z,43.00
2023-05-06T23:45:03.369Z,43.33
2023-05-06T23:47:30.520Z,43.09
2023-05-06T23:49:57.632Z,42.78
2023-05-06T23:52:24.739Z,43.06
2023-05-06T23:54:51.817Z,42.76
2023-05-06T23:57:18.894Z,42.91
2023-05-06T23:59:45.975Z,43.12
